Time;durP1;ratioP1;P1;durP2;ratioP2;P2;SDS_P1;SDS_P2;PMS_P1;PMS_P2;Temp;Humidity;BMP_temperature;BMP_pressure;BME280_temperature;BME280_humidity;BME280_pressure;Samples;Min_cycle;Max_cycle;Signal;HPM_P1;HPM_P2
2023/10/20 00:01:03;;;;;;;27.90;19.35;;;;;;;;;;5100481;28;20403;-55
2023/10/20 00:03:30;;;;;;;23.98;17.60;;;;;;;;;;5103135;28;20139;-55
2023/10/20 00:05:58;;;;;;;25.67;17.75;;;;;;;;;;5106290;28;20046;-55
2023/10/20 00:08:27;;;;;;;25.40;17.55;;;;;;;;;;5105883;28;20118;-53
2023/10/20 00:10:57;;;;;;;22.35;16.77;;;;;;;;;;5106212;28;20130;-55
2023/10/20 00:13:23;;;;;;;25.63;16.35;;;;;;;;;;5103145;28;20565;-52
2023/10/20 00:15:50;;;;;;;23.13;16.60;;;;;;;;;;5107489;28;20465;-56
2023/10/20 00:18:18;;;;;;;22.48;17.52;;;;;;;;;;5105894;28;20043;-53
2023/10/20 00:20:44;;;;;;;24.83;17.23;;;;;;;;;;5108047;28;20058;-56
2023/10/20 00:23:11;;;;;;;26.88;19.02;;;;;;;;;;5106442;28;20054;-53
2023/10/20 00:25:39;;;;;;;23.38;17.77;;;;;;;;;;5105252;28;20320;-55
2023/10/20 00:28:06;;;;;;;25.70;17.75;;;;;;;;;;5106871;28;20044;-53
2023/10/20 00:30:33;;;;;;;27.08;17.98;;;;;;;;;;5108279;28;20043;-55
2023/10/20 00:32:59;;;;;;;26.02;17.95;;;;;;;;;;5107313;28;20043;-56
2023/10/20 00:35:27;;;;;;;24.00;16.52;;;;;;;;;;5106376;28;20040;-57
2023/10/20 00:37:54;;;;;;;24.05;17.45;;;;;;;;;;5105192;28;20165;-54
2023/10/20 00:40:20;;;;;;;26.13;18.58;;;;;;;;;;5107093;28;20134;-58
2023/10/20 00:42:49;;;;;;;28.33;17.85;;;;;;;;;;5106269;28;20487;-52
2023/10/20 00:45:16;;;;;;;25.00;16.77;;;;;;;;;;5101958;28;20105;-56
2023/10/20 00:47:44;;;;;;;29.80;18.88;;;;;;;;;;5101875;28;20046;-52
2023/10/20 00:50:13;;;;;;;24.08;17.58;;;;;;;;;;5107286;28;20044;-51
2023/10/20 00:52:42;;;;;;;27.00;16.77;;;;;;;;;;5102470;28;20135;-56
2023/10/20 00:55:09;;;;;;;26.13;18.33;;;;;;;;;;5107676;28;20050;-56
2023/10/20 00:57:38;;;;;;;25.25;18.17;;;;;;;;;;5104666;28;20168;-55
2023/10/20 01:00:09;;;;;;;26.25;17.65;;;;;;;;;;5107670;28;20054;-56
2023/10/20 01:02:36;;;;;;;24.23;16.70;;;;;;;;;;5101427;28;20147;-55
2023/10/20 01:05:05;;;;;;;23.65;16.83;;;;;;;;;;5102004;28;20071;-55
2023/10/20 01:07:32;;;;;;;26.25;17.23;;;;;;;;;;5103765;28;20423;-53
2023/10/20 01:10:00;;;;;;;24.67;17.85;;;;;;;;;;5107794;28;20043;-53
2023/10/20 01:12:27;;;;;;;23.35;17.10;;;;;;;;;;5104126;28;20050;-54
2023/10/20 01:14:53;;;;;;;22.52;16.52;;;;;;;;;;5103757;28;20054;-51
2023/10/20 01:17:21;;;;;;;26.40;17.13;;;;;;;;;;5107938;28;20146;-54
2023/10/20 01:19:48;;;;;;;24.45;17.30;;;;;;;;;;5107913;28;20127;-55
2023/10/20 01:22:14;;;;;;;24.35;17.10;;;;;;;;;;5107577;28;20499;-53
2023/10/20 01:24:42;;;;;;;23.08;16.88;;;;;;;;;;5104840;28;20096;-54
2023/10/20 01:27:09;;;;;;;23.90;16.90;;;;;;;;;;5110585;28;20047;-54
2023/10/20 01:29:36;;;;;;;23.67;17.77;;;;;;;;;;5105539;28;20043;-54
2023/10/20 01:32:03;;;;;;;26.95;17.10;;;;;;;;;;5109395;28;20050;-56
2023/10/20 01:34:30;;;;;;;25.63;16.77;;;;;;;;;;5110194;28;20043;-51
2023/10/20 01:36:57;;;;;;;25.73;17.85;;;;;;;;;;5111238;28;20124;-55
2023/10/20 01:39:25;;;;;;;24.45;16.73;;;;;;;;;;5107248;28;20426;-55
2023/10/20 01:41:54;;;;;;;23.63;16.95;;;;;;;;;;5109459;28;20096;-54
2023/10/20 01:44:21;;;;;;;29.15;18.23;;;;;;;;;;5111000;28;20123;-54
2023/10/20 01:46:49;;;;;;;24.45;17.08;;;;;;;;;;5110988;28;20459;-52
2023/10/20 01:49:16;;;;;;;23.50;17.85;;;;;;;;;;5107217;28;20054;-54
2023/10/20 01:51:42;;;;;;;22.23;16.65;;;;;;;;;;5110023;28;20047;-53
2023/10/20 01:54:09;;;;;;;24.63;17.25;;;;;;;;;;5100767;28;20051;-52
2023/10/20 01:56:36;;;;;;;26.58;18.27;;;;;;;;;;5110919;28;20153;-51
2023/10/20 01:59:04;;;;;;;28.20;19.00;;;;;;;;;;5102329;28;20055;-53
2023/10/20 02:01:31;;;;;;;27.83;19.13;;;;;;;;;;5110969;28;20392;-50
2023/10/20 02:03:58;;;;;;;25.23;18.23;;;;;;;;;;5103122;28;20550;-51
2023/10/20 02:06:24;;;;;;;28.73;21.10;;;;;;;;;;5107792;28;20467;-53
2023/10/20 02:08:51;;;;;;;27.50;18.83;;;;;;;;;;5110710;28;20044;-55
2023/10/20 02:11:17;;;;;;;30.65;20.35;;;;;;;;;;5108661;28;20040;-49
2023/10/20 02:13:44;;;;;;;28.42;18.73;;;;;;;;;;5110092;28;20044;-52
2023/10/20 02:16:12;;;;;;;29.25;19.92;;;;;;;;;;5108126;28;20126;-52
2023/10/20 02:18:39;;;;;;;30.30;21.73;;;;;;;;;;5106911;28;20053;-55
2023/10/20 02:21:07;;;;;;;30.73;20.90;;;;;;;;;;5109046;28;20322;-51
2023/10/20 02:23:35;;;;;;;31.40;21.60;;;;;;;;;;5107409;28;20044;-55
2023/10/20 02:26:05;;;;;;;28.98;20.65;;;;;;;;;;5110175;28;20059;-52
2023/10/20 02:28:32;;;;;;;29.58;21.15;;;;;;;;;;5110539;28;20430;-52
2023/10/20 02:31:01;;;;;;;30.70;20.80;;;;;;;;;;5109977;28;20070;-48
2023/10/20 02:33:29;;;;;;;33.20;22.02;;;;;;;;;;5106519;28;20047;-51
2023/10/20 02:35:55;;;;;;;31.63;21.52;;;;;;;;;;5107371;28;20563;-52
2023/10/20 02:38:22;;;;;;;32.28;21.13;;;;;;;;;;5110375;28;20047;-51
2023/10/20 02:40:52;;;;;;;33.40;22.25;;;;;;;;;;5109921;28;20091;-48
2023/10/20 02:43:19;;;;;;;30.10;21.13;;;;;;;;;;5109828;28;20057;-52
2023/10/20 02:45:49;;;;;;;32.80;22.83;;;;;;;;;;5110352;28;20082;-54
2023/10/20 02:48:16;;;;;;;32.35;21.90;;;;;;;;;;5107300;28;20078;-53
2023/10/20 02:50:44;;;;;;;34.65;22.45;;;;;;;;;;5105606;28;20453;-54
2023/10/20 02:53:11;;;;;;;34.00;23.52;;;;;;;;;;5109853;28;20435;-54
2023/10/20 02:55:38;;;;;;;33.92;22.77;;;;;;;;;;5109261;28;20040;-49
2023/10/20 02:58:04;;;;;;;30.70;22.30;;;;;;;;;;5109814;28;20067;-50
2023/10/20 03:00:31;;;;;;;30.77;22.95;;;;;;;;;;5106000;28;20041;-51
2023/10/20 03:02:58;;;;;;;36.10;24.55;;;;;;;;;;5109141;28;20138;-56
2023/10/20 03:05:29;;;;;;;33.97;24.05;;;;;;;;;;5107627;28;20579;-53
2023/10/20 03:07:57;;;;;;;35.00;23.35;;;;;;;;;;5106408;28;20055;-51
2023/10/20 03:10:24;;;;;;;34.58;23.42;;;;;;;;;;5109273;28;20509;-48
2023/10/20 03:12:50;;;;;;;34.13;23.55;;;;;;;;;;5109070;28;20573;-53
2023/10/20 03:15:17;;;;;;;37.30;25.38;;;;;;;;;;5109139;28;20044;-50
2023/10/20 03:17:44;;;;;;;35.05;25.23;;;;;;;;;;5106721;28;20500;-54
2023/10/20 03:20:14;;;;;;;37.33;24.42;;;;;;;;;;5104906;28;20043;-54
2023/10/20 03:22:41;;;;;;;35.75;24.38;;;;;;;;;;5107028;28;20059;-51
2023/10/20 03:25:10;;;;;;;36.65;25.85;;;;;;;;;;5104984;27;20468;-50
2023/10/20 03:27:38;;;;;;;35.10;24.42;;;;;;;;;;5109065;28;20040;-53
2023/10/20 03:30:06;;;;;;;37.42;26.05;;;;;;;;;;5105868;28;20142;-49
2023/10/20 03:32:33;;;;;;;37.58;26.48;;;;;;;;;;5104632;28;20130;-49
2023/10/20 03:34:59;;;;;;;34.70;25.08;;;;;;;;;;5106715;28;20388;-50
2023/10/20 03:37:26;;;;;;;39.10;26.45;;;;;;;;;;5101109;28;20528;-53
2023/10/20 03:39:53;;;;;;;39.05;26.05;;;;;;;;;;5105342;28;20460;-51
2023/10/20 03:42:21;;;;;;;37.80;27.52;;;;;;;;;;5109157;28;20530;-54
2023/10/20 03:44:48;;;;;;;38.35;26.50;;;;;;;;;;5102985;28;20328;-52
2023/10/20 03:47:16;;;;;;;39.70;27.33;;;;;;;;;;5104715;28;20416;-50
2023/10/20 03:49:43;;;;;;;40.80;27.60;;;;;;;;;;5104270;28;20044;-51
2023/10/20 03:52:13;;;;;;;37.03;27.00;;;;;;;;;;5108807;28;20443;-51
2023/10/20 03:54:39;;;;;;;41.33;27.83;;;;;;;;;;5105019;28;20044;-50
2023/10/20 03:57:06;;;;;;;39.30;26.10;;;;;;;;;;5108639;28;20054;-50
2023/10/20 03:59:34;;;;;;;40.45;26.77;;;;;;;;;;5106068;28;20147;-51
2023/10/20 04:02:01;;;;;;;37.08;25.80;;;;;;;;;;5101185;28;20582;-51
2023/10/20 04:04:28;;;;;;;39.42;27.17;;;;;;;;;;5108368;28;20048;-53
2023/10/20 04:06:54;;;;;;;40.28;25.95;;;;;;;;;;5102353;28;20040;-50
2023/10/20 04:09:22;;;;;;;38.17;27.10;;;;;;;;;;5104974;28;20542;-51
2023/10/20 04:11:49;;;;;;;37.17;26.63;;;;;;;;;;5108445;28;20471;-52
2023/10/20 04:14:15;;;;;;;39.85;26.73;;;;;;;;;;5107931;28;20209;-49
2023/10/20 04:16:45;;;;;;;40.42;27.98;;;;;;;;;;5107044;28;20047;-52
2023/10/20 04:19:14;;;;;;;40.25;27.55;;;;;;;;;;5108161;28;20044;-48
2023/10/20 04:21:43;;;;;;;39.70;26.73;;;;;;;;;;5106873;28;20122;-50
2023/10/20 04:24:10;;;;;;;41.35;28.17;;;;;;;;;;5103882;28;20044;-51
2023/10/20 04:26:38;;;;;;;39.90;26.80;;;;;;;;;;5108361;28;20060;-52
2023/10/20 04:29:23;;;;;;;42.67;29.20;;;;;;;;;;5108290;28;20039;-51
2023/10/20 04:43:35;;;;;;;41.03;27.90;;;;;;;;;;5108299;28;20471;-53
2023/10/20 04:54:44;;;;;;;43.42;27.98;;;;;;;;;;5098009;28;20051;-54
2023/10/20 05:00:30;;;;;;;43.00;27.77;;;;;;;;;;5105858;28;20100;-53
2023/10/20 05:02:56;;;;;;;39.90;27.42;;;;;;;;;;5110131;28;20062;-53
2023/10/20 05:05:33;;;;;;;46.63;29.60;;;;;;;;;;5110006;28;20109;-53
2023/10/20 05:08:04;;;;;;;46.60;29.60;;;;;;;;;;5109568;28;20074;-50
2023/10/20 05:10:32;;;;;;;43.88;27.38;;;;;;;;;;5110395;28;20093;-52
2023/10/20 05:12:59;;;;;;;44.13;28.77;;;;;;;;;;5112152;28;20419;-50
2023/10/20 05:15:26;;;;;;;41.78;29.45;;;;;;;;;;5112080;28;20471;-52
2023/10/20 05:17:53;;;;;;;46.38;30.20;;;;;;;;;;5108827;28;20117;-51
2023/10/20 05:20:20;;;;;;;45.10;29.70;;;;;;;;;;5111332;28;20051;-51
2023/10/20 05:22:49;;;;;;;46.17;29.90;;;;;;;;;;5112339;28;20383;-54
2023/10/20 05:25:15;;;;;;;41.72;28.30;;;;;;;;;;5112283;28;20047;-54
2023/10/20 05:27:42;;;;;;;46.47;30.13;;;;;;;;;;5112363;28;20551;-53
2023/10/20 05:30:10;;;;;;;42.45;29.75;;;;;;;;;;5105352;27;20032;-49
2023/10/20 05:32:37;;;;;;;46.90;30.83;;;;;;;;;;5106823;27;20131;-50
2023/10/20 05:35:07;;;;;;;46.42;29.90;;;;;;;;;;5110721;28;20047;-52
2023/10/20 05:37:34;;;;;;;45.97;29.80;;;;;;;;;;5108599;28;20473;-50
2023/10/20 05:40:02;;;;;;;45.05;29.42;;;;;;;;;;5106780;27;20096;-50
2023/10/20 05:42:29;;;;;;;42.42;29.77;;;;;;;;;;5108163;28;20047;-52
2023/10/20 05:45:03;;;;;;;41.88;28.73;;;;;;;;;;5107633;28;20230;-52
2023/10/20 05:47:29;;;;;;;44.92;28.88;;;;;;;;;;5109851;28;20487;-50
2023/10/20 05:49:56;;;;;;;48.47;29.90;;;;;;;;;;5110755;28;20130;-52
2023/10/20 05:52:23;;;;;;;45.65;30.45;;;;;;;;;;5110952;28;20140;-49
2023/10/20 05:54:50;;;;;;;47.53;30.80;;;;;;;;;;5108363;28;20529;-54
2023/10/20 05:57:18;;;;;;;46.40;30.58;;;;;;;;;;5111272;28;20048;-51
2023/10/20 05:59:46;;;;;;;45.10;30.98;;;;;;;;;;5109059;28;20127;-54
2023/10/20 06:02:13;;;;;;;45.10;28.83;;;;;;;;;;5108525;28;20079;-53
2023/10/20 06:04:39;;;;;;;48.63;30.50;;;;;;;;;;5111013;28;20721;-52
2023/10/20 06:07:07;;;;;;;45.25;31.20;;;;;;;;;;5107026;28;20058;-53
2023/10/20 06:09:34;;;;;;;45.03;30.58;;;;;;;;;;5111236;28;20047;-55
2023/10/20 06:12:02;;;;;;;45.47;30.02;;;;;;;;;;5110864;28;20035;-49
2023/10/20 06:14:30;;;;;;;48.65;30.10;;;;;;;;;;5111073;28;20055;-52
2023/10/20 06:16:57;;;;;;;46.83;30.33;;;;;;;;;;5109450;28;20108;-51
2023/10/20 06:19:24;;;;;;;45.67;30.67;;;;;;;;;;5106963;28;20086;-50
2023/10/20 06:21:51;;;;;;;46.35;30.73;;;;;;;;;;5109132;28;20058;-53
2023/10/20 06:24:17;;;;;;;48.60;31.75;;;;;;;;;;5107439;28;20138;-51
2023/10/20 06:26:45;;;;;;;48.28;32.47;;;;;;;;;;5110288;28;20058;-56
2023/10/20 06:29:26;;;;;;;51.60;31.60;;;;;;;;;;5110756;28;20048;-51
2023/10/20 06:31:57;;;;;;;49.88;32.10;;;;;;;;;;5106499;28;20111;-49
2023/10/20 06:34:24;;;;;;;44.70;28.90;;;;;;;;;;5108361;28;20054;-50
2023/10/20 06:36:59;;;;;;;47.83;32.30;;;;;;;;;;5110656;28;20039;-53
2023/10/20 06:39:26;;;;;;;48.10;30.30;;;;;;;;;;5109232;28;20462;-54
2023/10/20 06:41:52;;;;;;;48.28;30.92;;;;;;;;;;5107567;28;20073;-53
2023/10/20 06:44:19;;;;;;;46.78;30.92;;;;;;;;;;5108317;28;20043;-51
2023/10/20 06:46:46;;;;;;;50.72;32.30;;;;;;;;;;5110802;28;20463;-54
2023/10/20 06:49:18;;;;;;;47.35;30.98;;;;;;;;;;5109726;28;20051;-55
2023/10/20 06:51:45;;;;;;;48.17;31.83;;;;;;;;;;5110328;28;20051;-53
2023/10/20 06:54:12;;;;;;;47.53;31.90;;;;;;;;;;5109972;28;20445;-52
2023/10/20 06:56:39;;;;;;;45.83;31.65;;;;;;;;;;5110239;28;20460;-53
2023/10/20 06:59:06;;;;;;;44.50;29.60;;;;;;;;;;5109990;28;20056;-54
2023/10/20 07:01:33;;;;;;;52.17;33.42;;;;;;;;;;5105770;28;20130;-54
2023/10/20 07:04:00;;;;;;;45.42;29.45;;;;;;;;;;5109680;28;20044;-54
2023/10/20 07:06:28;;;;;;;44.97;30.75;;;;;;;;;;5110325;28;20043;-54
2023/10/20 07:08:55;;;;;;;47.40;30.30;;;;;;;;;;5108281;28;20503;-51
2023/10/20 07:11:21;;;;;;;46.60;30.73;;;;;;;;;;5107074;28;20079;-54
2023/10/20 07:13:48;;;;;;;47.65;32.10;;;;;;;;;;5109487;28;20078;-53
2023/10/20 07:16:15;;;;;;;46.55;31.02;;;;;;;;;;5107342;28;20071;-55
2023/10/20 07:18:42;;;;;;;46.80;29.27;;;;;;;;;;5109426;28;20050;-51
2023/10/20 07:21:09;;;;;;;66.47;40.03;;;;;;;;;;5107307;28;20399;-54
2023/10/20 07:23:37;;;;;;;49.45;31.05;;;;;;;;;;5108168;28;20054;-52
2023/10/20 07:26:03;;;;;;;55.95;33.13;;;;;;;;;;5105761;28;20127;-52
2023/10/20 07:28:30;;;;;;;49.00;31.35;;;;;;;;;;5109036;28;20437;-50
2023/10/20 07:30:57;;;;;;;51.65;32.38;;;;;;;;;;5109014;28;20043;-53
2023/10/20 07:33:23;;;;;;;45.40;30.27;;;;;;;;;;5106869;28;20047;-52
2023/10/20 07:35:50;;;;;;;47.10;30.05;;;;;;;;;;5108285;28;20396;-54
2023/10/20 07:38:17;;;;;;;47.22;31.02;;;;;;;;;;5109135;28;20043;-53
2023/10/20 07:40:45;;;;;;;44.08;29.98;;;;;;;;;;5107549;28;20056;-55
2023/10/20 07:43:11;;;;;;;41.85;28.35;;;;;;;;;;5109015;28;20140;-53
2023/10/20 07:45:40;;;;;;;43.17;29.77;;;;;;;;;;5105842;27;20047;-51
2023/10/20 07:48:07;;;;;;;45.22;29.58;;;;;;;;;;5102005;28;20048;-55
2023/10/20 07:50:33;;;;;;;47.70;31.08;;;;;;;;;;5104323;28;20507;-53
2023/10/20 07:53:01;;;;;;;44.08;28.25;;;;;;;;;;5108047;27;20058;-52
2023/10/20 07:55:27;;;;;;;41.78;28.60;;;;;;;;;;5107234;28;20414;-50
2023/10/20 07:57:55;;;;;;;44.58;29.83;;;;;;;;;;5108341;27;20050;-56
2023/10/20 08:00:24;;;;;;;40.42;27.15;;;;;;;;;;5103178;28;20040;-53
2023/10/20 08:02:50;;;;;;;43.05;27.67;;;;;;;;;;5103949;28;20532;-52
2023/10/20 08:05:17;;;;;;;46.20;29.80;;;;;;;;;;5108192;28;20479;-53
2023/10/20 08:07:44;;;;;;;45.20;27.60;;;;;;;;;;5108222;28;20078;-53
2023/10/20 08:10:11;;;;;;;41.65;27.20;;;;;;;;;;5105857;27;20048;-52
2023/10/20 08:12:37;;;;;;;41.15;27.73;;;;;;;;;;5106620;27;20047;-52
2023/10/20 08:15:08;;;;;;;40.55;26.92;;;;;;;;;;5106649;28;20089;-52
2023/10/20 08:17:34;;;;;;;44.08;27.17;;;;;;;;;;5105757;28;20077;-52
2023/10/20 08:20:01;;;;;;;40.90;27.25;;;;;;;;;;5101637;27;20539;-54
2023/10/20 08:22:28;;;;;;;39.35;25.73;;;;;;;;;;5105729;28;20135;-55
2023/10/20 08:24:54;;;;;;;35.53;24.85;;;;;;;;;;5103159;28;20519;-53
2023/10/20 08:27:21;;;;;;;38.63;26.10;;;;;;;;;;5106974;28;20035;-56
2023/10/20 08:29:49;;;;;;;37.53;24.38;;;;;;;;;;5101617;28;20528;-54
2023/10/20 08:32:19;;;;;;;37.38;24.73;;;;;;;;;;5106177;28;20147;-56
2023/10/20 08:34:45;;;;;;;39.90;24.70;;;;;;;;;;5107602;28;20047;-54
2023/10/20 08:37:12;;;;;;;34.60;23.75;;;;;;;;;;5112543;28;20529;-53
2023/10/20 08:39:38;;;;;;;34.55;23.70;;;;;;;;;;5106692;28;20133;-56
2023/10/20 08:42:15;;;;;;;36.05;23.52;;;;;;;;;;5103754;28;20556;-54
2023/10/20 08:44:43;;;;;;;35.45;24.85;;;;;;;;;;5112539;28;20049;-49
2023/10/20 08:47:11;;;;;;;31.48;23.33;;;;;;;;;;5104671;28;20040;-54
2023/10/20 08:49:40;;;;;;;36.33;25.02;;;;;;;;;;5107221;28;20107;-54
2023/10/20 08:52:08;;;;;;;30.35;22.65;;;;;;;;;;5112041;28;20056;-55
2023/10/20 08:54:35;;;;;;;30.80;21.52;;;;;;;;;;5110799;28;20042;-53
2023/10/20 08:57:02;;;;;;;30.88;22.02;;;;;;;;;;5109850;28;20070;-53
2023/10/20 08:59:29;;;;;;;33.67;22.25;;;;;;;;;;5107573;28;20142;-53
2023/10/20 09:01:56;;;;;;;30.05;20.75;;;;;;;;;;5108636;28;20075;-49
2023/10/20 09:04:23;;;;;;;33.20;20.85;;;;;;;;;;5106021;27;20047;-51
2023/10/20 09:06:52;;;;;;;31.58;21.17;;;;;;;;;;5109053;28;20044;-53
2023/10/20 09:09:20;;;;;;;30.00;19.92;;;;;;;;;;5110446;28;20072;-53
2023/10/20 09:11:47;;;;;;;27.20;18.60;;;;;;;;;;5108827;28;20580;-49
2023/10/20 09:14:15;;;;;;;25.40;18.70;;;;;;;;;;5112057;28;20123;-51
2023/10/20 09:16:42;;;;;;;27.48;19.50;;;;;;;;;;5107984;28;20082;-52
2023/10/20 09:19:10;;;;;;;27.83;18.17;;;;;;;;;;5110636;28;20039;-53
2023/10/20 09:21:39;;;;;;;30.33;19.35;;;;;;;;;;5112465;28;20529;-54
2023/10/20 09:24:09;;;;;;;24.73;17.80;;;;;;;;;;5112054;28;20043;-53
2023/10/20 09:26:37;;;;;;;24.73;17.90;;;;;;;;;;5112414;28;20048;-50
2023/10/20 09:29:05;;;;;;;27.23;18.23;;;;;;;;;;5109079;28;20047;-50
2023/10/20 09:31:33;;;;;;;27.48;17.67;;;;;;;;;;5111332;28;20047;-53
2023/10/20 09:34:00;;;;;;;26.13;17.30;;;;;;;;;;5110966;28;20126;-51
2023/10/20 09:36:30;;;;;;;22.70;15.45;;;;;;;;;;5111731;28;20409;-57
2023/10/20 09:38:57;;;;;;;27.67;17.00;;;;;;;;;;5111243;28;20044;-57
2023/10/20 09:41:27;;;;;;;21.20;14.00;;;;;;;;;;5111239;28;20062;-55
2023/10/20 09:44:02;;;;;;;21.17;14.77;;;;;;;;;;5110753;28;20518;-57
2023/10/20 09:46:46;;;;;;;18.88;12.82;;;;;;;;;;5108827;28;20053;-58
2023/10/20 09:49:16;;;;;;;16.23;11.48;;;;;;;;;;5106018;28;20039;-57
2023/10/20 09:51:45;;;;;;;18.58;11.38;;;;;;;;;;5111186;28;20071;-56
2023/10/20 09:54:13;;;;;;;14.48;11.25;;;;;;;;;;5100723;28;20039;-57
2023/10/20 09:56:42;;;;;;;13.75;9.60;;;;;;;;;;5103259;27;20046;-58
2023/10/20 09:59:09;;;;;;;13.45;9.07;;;;;;;;;;5111159;28;20043;-56
2023/10/20 10:01:37;;;;;;;12.38;8.45;;;;;;;;;;5110364;28;20040;-58
2023/10/20 10:04:08;;;;;;;8.82;5.93;;;;;;;;;;5107356;28;20514;-58
2023/10/20 10:06:36;;;;;;;9.23;5.95;;;;;;;;;;5105925;28;20286;-57
2023/10/20 10:09:05;;;;;;;8.70;4.32;;;;;;;;;;5110702;28;20535;-57
2023/10/20 10:11:34;;;;;;;8.38;4.85;;;;;;;;;;5102503;28;20055;-58
2023/10/20 10:14:04;;;;;;;9.30;4.82;;;;;;;;;;5107180;28;20125;-57
2023/10/20 10:16:31;;;;;;;6.78;3.88;;;;;;;;;;5110376;28;20044;-56
2023/10/20 10:19:07;;;;;;;5.88;3.50;;;;;;;;;;5107362;28;20047;-56
2023/10/20 10:21:38;;;;;;;5.68;3.80;;;;;;;;;;5107543;28;20047;-56
2023/10/20 10:24:13;;;;;;;5.18;3.10;;;;;;;;;;5109907;28;20052;-57
2023/10/20 10:26:46;;;;;;;5.72;2.80;;;;;;;;;;5107527;28;20043;-57
2023/10/20 10:29:14;;;;;;;6.07;3.20;;;;;;;;;;5103330;27;20040;-60
2023/10/20 10:31:42;;;;;;;5.75;2.83;;;;;;;;;;5107317;28;20516;-49
2023/10/20 10:34:09;;;;;;;6.03;2.83;;;;;;;;;;5107167;28;20051;-56
2023/10/20 10:36:46;;;;;;;5.70;2.92;;;;;;;;;;5105625;28;20040;-52
2023/10/20 10:39:24;;;;;;;5.22;3.10;;;;;;;;;;5108459;28;20511;-54
2023/10/20 10:41:53;;;;;;;6.63;3.35;;;;;;;;;;5110130;28;20096;-50
2023/10/20 10:44:22;;;;;;;6.60;3.38;;;;;;;;;;5109477;28;20043;-52
2023/10/20 10:46:51;;;;;;;6.37;3.60;;;;;;;;;;5108173;28;20050;-56
2023/10/20 10:49:18;;;;;;;5.20;3.10;;;;;;;;;;5104259;27;20050;-52
2023/10/20 10:51:46;;;;;;;6.88;3.20;;;;;;;;;;5106770;28;20046;-51
2023/10/20 10:54:12;;;;;;;5.60;2.90;;;;;;;;;;5106319;28;20040;-52
2023/10/20 10:56:41;;;;;;;9.65;6.00;;;;;;;;;;5106353;28;20071;-53
2023/10/20 10:59:09;;;;;;;12.35;8.23;;;;;;;;;;5103053;28;20439;-53
2023/10/20 11:01:38;;;;;;;12.13;7.13;;;;;;;;;;5109119;28;20499;-52
2023/10/20 11:04:07;;;;;;;10.23;5.78;;;;;;;;;;5102970;28;20048;-52
2023/10/20 11:06:37;;;;;;;10.23;5.45;;;;;;;;;;5109204;28;20286;-54
2023/10/20 11:09:06;;;;;;;8.95;5.70;;;;;;;;;;5107508;28;20056;-52
2023/10/20 11:11:38;;;;;;;9.47;5.47;;;;;;;;;;5109472;28;20130;-54
2023/10/20 11:14:05;;;;;;;7.40;5.25;;;;;;;;;;5109071;28;20067;-52
2023/10/20 11:16:34;;;;;;;5.85;3.78;;;;;;;;;;5106635;28;20517;-53
2023/10/20 11:19:03;;;;;;;7.03;4.10;;;;;;;;;;5110121;28;20054;-52
2023/10/20 11:21:30;;;;;;;8.23;3.55;;;;;;;;;;5106812;28;20759;-50
2023/10/20 11:23:57;;;;;;;6.13;4.03;;;;;;;;;;5106933;28;20048;-50
2023/10/20 11:26:24;;;;;;;6.07;4.20;;;;;;;;;;5108276;28;20050;-52
2023/10/20 11:28:51;;;;;;;7.53;4.30;;;;;;;;;;5109624;28;20126;-54
2023/10/20 11:31:19;;;;;;;6.78;4.22;;;;;;;;;;5104652;28;20043;-55
2023/10/20 11:33:45;;;;;;;6.95;3.83;;;;;;;;;;5101881;28;20633;-53
2023/10/20 11:36:13;;;;;;;5.88;3.70;;;;;;;;;;5103226;27;20043;-61
2023/10/20 11:38:40;;;;;;;6.15;3.90;;;;;;;;;;5103529;28;20102;-52
2023/10/20 11:41:06;;;;;;;5.30;3.50;;;;;;;;;;5102370;27;20591;-49
2023/10/20 11:43:33;;;;;;;5.22;3.65;;;;;;;;;;5097398;27;20483;-54
2023/10/20 11:46:00;;;;;;;5.25;3.58;;;;;;;;;;5105000;27;20131;-54
2023/10/20 11:48:27;;;;;;;5.97;3.50;;;;;;;;;;5108256;28;20039;-54
2023/10/20 11:50:53;;;;;;;6.22;3.22;;;;;;;;;;5109257;28;20050;-50
2023/10/20 11:53:21;;;;;;;5.78;3.70;;;;;;;;;;5105900;28;20487;-53
2023/10/20 11:55:48;;;;;;;6.38;3.50;;;;;;;;;;5102706;27;20040;-51
2023/10/20 11:58:16;;;;;;;8.05;3.63;;;;;;;;;;5107178;28;20086;-54
2023/10/20 12:00:44;;;;;;;5.82;3.70;;;;;;;;;;5102393;28;20043;-52
2023/10/20 12:03:11;;;;;;;6.40;3.72;;;;;;;;;;5105747;28;20044;-55
2023/10/20 12:05:37;;;;;;;5.47;3.13;;;;;;;;;;5101710;28;20411;-54
2023/10/20 12:08:05;;;;;;;5.43;3.28;;;;;;;;;;5104355;28;20035;-56
2023/10/20 12:10:33;;;;;;;4.70;2.80;;;;;;;;;;5103702;28;20708;-55
2023/10/20 12:13:02;;;;;;;5.35;2.47;;;;;;;;;;5108341;28;20070;-54
2023/10/20 12:15:30;;;;;;;4.22;2.45;;;;;;;;;;5106435;28;20497;-51
2023/10/20 12:17:57;;;;;;;4.43;2.80;;;;;;;;;;5102938;28;20052;-53
2023/10/20 12:20:24;;;;;;;4.93;2.60;;;;;;;;;;5107029;28;20480;-52
2023/10/20 12:22:55;;;;;;;4.75;2.95;;;;;;;;;;5105098;28;20050;-54
2023/10/20 12:25:21;;;;;;;;;;;;;;;;;;5108961;28;20043;-51
2023/10/20 12:27:49;;;;;;;6.57;3.35;;;;;;;;;;5107006;28;19920;-56
2023/10/20 12:30:16;;;;;;;6.30;3.15;;;;;;;;;;5099411;28;20047;-52
2023/10/20 12:32:43;;;;;;;4.63;2.83;;;;;;;;;;5105257;28;20488;-51
2023/10/20 12:35:11;;;;;;;4.30;2.53;;;;;;;;;;5107373;28;20043;-51
2023/10/20 12:37:38;;;;;;;6.20;2.65;;;;;;;;;;5104248;28;20044;-53
2023/10/20 12:40:05;;;;;;;4.20;2.40;;;;;;;;;;5099129;28;20124;-53
2023/10/20 12:42:32;;;;;;;4.72;2.50;;;;;;;;;;5106909;28;20044;-55
2023/10/20 12:45:01;;;;;;;4.30;2.30;;;;;;;;;;5103989;28;20214;-55
2023/10/20 12:47:27;;;;;;;9.57;3.00;;;;;;;;;;5108283;28;20147;-53
2023/10/20 12:49:55;;;;;;;6.22;2.55;;;;;;;;;;5108272;28;20048;-52
2023/10/20 12:52:21;;;;;;;4.25;2.50;;;;;;;;;;5103454;28;20074;-56
2023/10/20 12:54:48;;;;;;;5.60;2.53;;;;;;;;;;5106971;28;20130;-56
2023/10/20 12:57:14;;;;;;;5.65;2.67;;;;;;;;;;5107267;28;20050;-51
2023/10/20 12:59:41;;;;;;;4.25;2.20;;;;;;;;;;5108004;28;20513;-53
2023/10/20 13:02:09;;;;;;;4.20;2.05;;;;;;;;;;5105531;28;20134;-51
2023/10/20 13:04:36;;;;;;;5.68;2.15;;;;;;;;;;5104410;28;20039;-53
2023/10/20 13:07:03;;;;;;;4.45;2.17;;;;;;;;;;5108092;28;20040;-53
2023/10/20 13:09:30;;;;;;;6.22;2.38;;;;;;;;;;5106877;28;20054;-53
2023/10/20 13:11:57;;;;;;;4.85;2.25;;;;;;;;;;5104370;28;20075;-50
2023/10/20 13:14:24;;;;;;;4.18;2.58;;;;;;;;;;5106838;28;20154;-51
2023/10/20 13:16:51;;;;;;;5.45;2.63;;;;;;;;;;5105636;28;20059;-52
2023/10/20 13:19:19;;;;;;;5.25;2.70;;;;;;;;;;5104374;28;20040;-53
2023/10/20 13:21:45;;;;;;;4.03;2.15;;;;;;;;;;5109623;28;20491;-50
2023/10/20 13:24:12;;;;;;;4.10;2.65;;;;;;;;;;5110943;28;20052;-54
2023/10/20 13:26:38;;;;;;;5.05;2.28;;;;;;;;;;5109423;28;20048;-55
2023/10/20 13:29:05;;;;;;;4.75;2.05;;;;;;;;;;5108423;28;20054;-56
2023/10/20 13:31:34;;;;;;;5.18;2.20;;;;;;;;;;5110042;28;20459;-53
2023/10/20 13:34:02;;;;;;;4.25;2.10;;;;;;;;;;5110867;28;20040;-58
2023/10/20 13:36:30;;;;;;;3.35;1.90;;;;;;;;;;5104340;28;20130;-51
2023/10/20 13:38:56;;;;;;;3.38;2.13;;;;;;;;;;5109556;28;20044;-51
2023/10/20 13:41:23;;;;;;;3.88;1.92;;;;;;;;;;5111282;28;20143;-52
2023/10/20 13:43:51;;;;;;;3.83;2.03;;;;;;;;;;5107017;28;20052;-56
2023/10/20 13:46:18;;;;;;;3.63;2.03;;;;;;;;;;5111512;28;20040;-57
2023/10/20 13:48:44;;;;;;;4.30;2.10;;;;;;;;;;5111462;28;20044;-55
2023/10/20 13:51:11;;;;;;;2.90;1.77;;;;;;;;;;5110433;28;20047;-58
2023/10/20 13:53:39;;;;;;;3.20;1.20;;;;;;;;;;5105932;28;20503;-51
2023/10/20 13:56:05;;;;;;;2.97;1.20;;;;;;;;;;5107985;28;20040;-51
2023/10/20 13:58:32;;;;;;;2.50;1.42;;;;;;;;;;5108958;28;20058;-55
2023/10/20 14:00:59;;;;;;;2.92;1.38;;;;;;;;;;5110399;28;20054;-49
2023/10/20 14:03:26;;;;;;;2.75;1.38;;;;;;;;;;5107095;28;20040;-54
2023/10/20 14:05:54;;;;;;;2.63;1.20;;;;;;;;;;5110261;28;20082;-55
2023/10/20 14:08:21;;;;;;;2.72;1.33;;;;;;;;;;5109574;28;20040;-52
2023/10/20 14:10:49;;;;;;;3.20;1.48;;;;;;;;;;5109420;28;20047;-49
2023/10/20 14:13:16;;;;;;;4.15;1.67;;;;;;;;;;5102077;28;20479;-52
2023/10/20 14:15:43;;;;;;;2.45;1.40;;;;;;;;;;5108190;28;20077;-50
2023/10/20 14:18:09;;;;;;;6.43;1.60;;;;;;;;;;5109828;28;20085;-54
2023/10/20 14:20:36;;;;;;;2.63;1.10;;;;;;;;;;5109659;28;20122;-53
2023/10/20 14:23:04;;;;;;;2.88;0.93;;;;;;;;;;5108800;28;20081;-51
2023/10/20 14:25:31;;;;;;;3.40;1.23;;;;;;;;;;5108639;28;20050;-51
2023/10/20 14:27:59;;;;;;;2.25;1.10;;;;;;;;;;5108728;28;20047;-52
2023/10/20 14:30:25;;;;;;;1.95;1.10;;;;;;;;;;5106305;28;20039;-56
2023/10/20 14:32:52;;;;;;;2.17;1.17;;;;;;;;;;5108154;28;20051;-53
2023/10/20 14:35:18;;;;;;;4.28;1.20;;;;;;;;;;5106457;28;20043;-50
2023/10/20 14:37:45;;;;;;;1.50;0.90;;;;;;;;;;5110016;28;20050;-50
2023/10/20 14:40:12;;;;;;;2.30;1.15;;;;;;;;;;5107807;28;20043;-51
2023/10/20 14:42:39;;;;;;;1.77;1.13;;;;;;;;;;5109282;28;20065;-52
2023/10/20 14:45:09;;;;;;;1.75;0.68;;;;;;;;;;5108853;28;20065;-49
2023/10/20 14:47:36;;;;;;;2.15;0.90;;;;;;;;;;5107600;28;20040;-51
2023/10/20 14:50:03;;;;;;;1.42;0.70;;;;;;;;;;5107903;28;20047;-52
2023/10/20 14:52:30;;;;;;;1.38;0.70;;;;;;;;;;5107416;28;20495;-53